Time;durP1;ratioP1;P1;durP2;ratioP2;P2;SDS_P1;SDS_P2;PMS_P1;PMS_P2;Temp;Humidity;BMP_temperature;BMP_pressure;BME280_temperature;BME280_humidity;BME280_pressure;Samples;Min_cycle;Max_cycle;Signal;HPM_P1;HPM_P2
2022/01/28 00:04:44;;;;;;;;;;;;;;;20.89;39.99;102863.38;5016235;28;19957;-76
2022/01/28 00:07:10;;;;;;;;;;;;;;;20.87;40.02;102871.06;5026380;28;19981;-76
2022/01/28 00:09:35;;;;;;;;;;;;;;;20.87;39.97;102873.81;4984695;28;19922;-77
2022/01/28 00:12:00;;;;;;;;;;;;;;;20.86;40.24;102883.13;4986945;28;20378;-76
2022/01/28 00:14:33;;;;;;;;;;;;;;;20.85;40.04;102885.06;5031686;28;19998;-76
2022/01/28 00:38:44;;;;;;;;;;;;;;;20.74;39.96;102921.75;5005895;28;19932;-76
2022/01/28 00:41:10;;;;;;;;;;;;;;;20.71;39.96;102909.38;5016362;28;19968;-77
2022/01/28 00:43:35;;;;;;;;;;;;;;;20.70;39.97;102902.22;5016643;28;19988;-76
2022/01/28 00:46:00;;;;;;;;;;;;;;;20.70;39.92;102915.13;5019170;28;19921;-77
2022/01/28 00:48:25;;;;;;;;;;;;;;;20.69;40.21;102911.56;5002763;28;19940;-76
2022/01/28 00:50:51;;;;;;;;;;;;;;;20.67;39.81;102921.13;5016901;28;20261;-76
2022/01/28 00:53:16;;;;;;;;;;;;;;;20.66;39.99;102914.81;5000843;28;20339;-76
2022/01/28 00:55:41;;;;;;;;;;;;;;;20.65;39.92;102915.88;5013940;28;19972;-76
2022/01/28 00:58:06;;;;;;;;;;;;;;;20.64;40.05;102911.50;5008579;28;19922;-76
2022/01/28 01:00:32;;;;;;;;;;;;;;;20.63;40.03;102912.56;5007064;28;19922;-76
2022/01/28 01:02:57;;;;;;;;;;;;;;;20.63;39.96;102930.97;4994288;28;20017;-76
2022/01/28 01:05:23;;;;;;;;;;;;;;;20.63;39.74;102933.72;5001909;28;20400;-76
2022/01/28 01:07:48;;;;;;;;;;;;;;;20.61;39.88;102930.38;5034561;28;19913;-76
2022/01/28 01:10:14;;;;;;;;;;;;;;;20.60;39.66;102935.06;5012668;28;20316;-76
2022/01/28 01:12:43;;;;;;;;;;;;;;;20.60;39.84;102936.97;5011847;28;19921;-77
2022/01/28 01:15:09;;;;;;;;;;;;;;;20.58;39.78;102941.88;5023842;28;19934;-76
2022/01/28 01:17:44;;;;;;;;;;;;;;;20.57;39.85;102938.31;5007486;28;20404;-76
2022/01/28 01:22:38;;;;;;;;;;;;;;;20.56;39.64;102938.56;5008688;28;19967;-76
2022/01/28 01:25:13;;;;;;;;;;;;;;;20.54;39.83;102936.06;4995147;28;20413;-76
2022/01/28 01:27:39;;;;;;;;;;;;;;;20.53;39.56;102939.88;5016395;28;19921;-77
2022/01/28 01:30:04;;;;;;;;;;;;;;;20.50;39.90;102943.97;5026040;28;19940;-76
2022/01/28 01:32:29;;;;;;;;;;;;;;;20.51;39.74;102942.03;5033842;28;20015;-76
2022/01/28 01:34:55;;;;;;;;;;;;;;;20.49;39.47;102936.81;4986406;28;20049;-77
2022/01/28 01:37:20;;;;;;;;;;;;;;;20.49;39.45;102930.50;5006521;28;19928;-77
2022/01/28 01:39:45;;;;;;;;;;;;;;;20.47;39.66;102941.75;4980105;28;20365;-76
2022/01/28 01:42:22;;;;;;;;;;;;;;;20.47;39.71;102929.94;4986261;28;20395;-76
2022/01/28 01:52:44;;;;;;;;;;;;;;;20.42;39.66;102949.09;5019554;28;19924;-76
2022/01/28 01:55:09;;;;;;;;;;;;;;;20.41;39.65;102950.16;5013149;28;20011;-76
2022/01/28 01:57:35;;;;;;;;;;;;;;;20.41;39.76;102955.66;5001386;28;19928;-77
2022/01/28 02:00:00;;;;;;;;;;;;;;;20.39;39.69;102958.66;5019591;28;20392;-76
2022/01/28 02:02:26;;;;;;;;;;;;;;;20.40;39.82;102962.22;5031317;28;20357;-76
2022/01/28 02:04:51;;;;;;;;;;;;;;;20.38;39.73;102973.47;4978071;28;19925;-76
2022/01/28 02:07:16;;;;;;;;;;;;;;;20.37;39.48;102966.31;5016137;28;20632;-76
2022/01/28 02:09:42;;;;;;;;;;;;;;;20.37;39.43;102981.97;5011000;28;19922;-77
2022/01/28 02:12:08;;;;;;;;;;;;;;;20.36;39.62;102981.13;5008920;28;20280;-76
2022/01/28 02:14:33;;;;;;;;;;;;;;;20.36;39.45;102978.41;5000617;28;20393;-76
2022/01/28 02:16:59;;;;;;;;;;;;;;;20.34;39.56;102985.22;5013755;28;20005;-76
2022/01/28 02:19:26;;;;;;;;;;;;;;;20.34;39.49;102988.78;4995517;28;19917;-76
2022/01/28 02:21:52;;;;;;;;;;;;;;;20.33;39.63;102989.84;4992357;28;19945;-76
2022/01/28 02:24:24;;;;;;;;;;;;;;;20.32;39.64;102996.44;4982221;28;19928;-76
2022/01/28 02:26:49;;;;;;;;;;;;;;;20.31;39.72;103000.28;4997304;28;19924;-76
2022/01/28 02:29:26;;;;;;;;;;;;;;;20.31;39.67;103001.09;4999222;28;20250;-77
2022/01/28 02:31:51;;;;;;;;;;;;;;;20.29;39.48;103000.53;4998271;28;19925;-76
2022/01/28 02:34:16;;;;;;;;;;;;;;;20.29;39.66;103002.44;5024598;28;20301;-76
2022/01/28 02:36:41;;;;;;;;;;;;;;;20.28;39.65;103012.56;5013421;28;19921;-76
2022/01/28 02:39:07;;;;;;;;;;;;;;;20.27;39.49;103010.91;5001589;28;19921;-76
2022/01/28 02:41:37;;;;;;;;;;;;;;;20.27;39.46;103010.91;5014038;28;19917;-76
2022/01/28 02:44:24;;;;;;;;;;;;;;;20.26;39.47;103009.28;4991082;28;19922;-76
2022/01/28 02:47:02;;;;;;;;;;;;;;;20.25;39.43;103010.34;5030196;28;19924;-76
2022/01/28 02:49:33;;;;;;;;;;;;;;;20.24;39.47;103008.69;4990425;28;20068;-76
2022/01/28 02:51:59;;;;;;;;;;;;;;;20.24;39.43;103013.34;5016241;28;19917;-77
2022/01/28 02:54:25;;;;;;;;;;;;;;;20.23;39.49;103014.41;5021481;28;20369;-76
2022/01/28 02:56:53;;;;;;;;;;;;;;;20.23;39.70;103017.16;5017517;28;20284;-76
2022/01/28 02:59:19;;;;;;;;;;;;;;;20.22;39.58;103021.00;5025022;28;20365;-76
2022/01/28 03:01:44;;;;;;;;;;;;;;;20.21;39.62;103013.84;5012009;28;19918;-76
2022/01/28 03:04:14;;;;;;;;;;;;;;;20.20;39.44;103021.25;4999989;28;19921;-76
2022/01/28 03:06:39;;;;;;;;;;;;;;;20.20;39.78;103024.00;5010123;28;20344;-76
2022/01/28 03:09:16;;;;;;;;;;;;;;;20.19;39.32;103030.56;5005790;28;20061;-76
2022/01/28 03:17:07;;;;;;;;;;;;;;;20.15;39.38;103045.88;4990848;28;20012;-76
2022/01/28 03:19:52;;;;;;;;;;;;;;;20.15;39.25;103045.88;4990127;28;19983;-76
2022/01/28 03:22:17;;;;;;;;;;;;;;;20.14;39.45;103046.13;5023210;28;19944;-76
2022/01/28 03:24:47;;;;;;;;;;;;;;;20.13;39.36;103045.28;4977295;28;19952;-77
2022/01/28 03:27:19;;;;;;;;;;;;;;;20.12;39.29;103045.56;5015859;28;19921;-76
2022/01/28 03:29:45;;;;;;;;;;;;;;;20.10;39.19;103043.88;4994882;28;19918;-76
2022/01/28 03:32:10;;;;;;;;;;;;;;;20.10;39.12;103045.78;4991250;28;19931;-76
2022/01/28 03:34:35;;;;;;;;;;;;;;;20.09;39.32;103049.63;4998566;28;19921;-76
2022/01/28 03:37:00;;;;;;;;;;;;;;;20.09;39.05;103046.88;5014285;28;20285;-76
2022/01/28 03:39:26;;;;;;;;;;;;;;;20.07;39.35;103044.38;4991372;28;20056;-77
2022/01/28 03:41:51;;;;;;;;;;;;;;;20.07;39.11;103043.56;5003870;28;19977;-77
2022/01/28 03:44:16;;;;;;;;;;;;;;;20.05;39.31;103046.53;5017829;28;20590;-76
2022/01/28 03:46:41;;;;;;;;;;;;;;;20.06;39.14;103044.66;5008899;28;19921;-76
2022/01/28 03:49:09;;;;;;;;;;;;;;;20.05;39.28;103042.97;5023033;28;19913;-76
2022/01/28 03:51:34;;;;;;;;;;;;;;;20.04;39.24;103038.56;5026461;28;19933;-76
2022/01/28 03:53:59;;;;;;;;;;;;;;;20.03;39.01;103048.72;4994148;28;19917;-76
2022/01/28 03:56:25;;;;;;;;;;;;;;;20.02;39.08;103038.81;4981578;28;19968;-77
2022/01/28 03:58:50;;;;;;;;;;;;;;;20.03;39.27;103050.59;5010219;28;19964;-76
2022/01/28 04:01:20;;;;;;;;;;;;;;;20.02;39.07;103043.47;5013934;28;19925;-76
2022/01/28 04:11:55;;;;;;;;;;;;;;;19.99;39.15;103064.00;5020582;28;20419;-76
2022/01/28 04:19:33;;;;;;;;;;;;;;;19.96;39.21;103059.03;4996747;28;19922;-76
2022/01/28 04:21:58;;;;;;;;;;;;;;;19.96;39.08;103063.66;5021115;28;19917;-76
2022/01/28 04:24:23;;;;;;;;;;;;;;;19.95;39.13;103072.97;5013315;28;19963;-76
2022/01/28 04:26:49;;;;;;;;;;;;;;;19.94;38.92;103074.91;4997697;28;19921;-76
2022/01/28 04:29:15;;;;;;;;;;;;;;;19.94;39.12;103068.59;5031358;28;20392;-76
2022/01/28 04:31:43;;;;;;;;;;;;;;;19.93;39.25;103086.13;5017581;28;19920;-77
2022/01/28 04:34:09;;;;;;;;;;;;;;;19.93;39.13;103086.13;5001365;28;19918;-76
2022/01/28 04:36:39;;;;;;;;;;;;;;;19.91;38.91;103080.91;4989268;28;20004;-77
2022/01/28 04:39:13;;;;;;;;;;;;;;;19.89;38.89;103083.88;5011669;28;20023;-76
2022/01/28 04:41:53;;;;;;;;;;;;;;;19.91;39.19;103093.75;5004703;28;20368;-75
2022/01/28 04:44:26;;;;;;;;;;;;;;;19.90;39.12;103090.19;5009788;28;19929;-76
2022/01/28 04:47:07;;;;;;;;;;;;;;;19.90;38.93;103098.41;5011324;28;19929;-76
2022/01/28 04:49:47;;;;;;;;;;;;;;;19.89;39.14;103107.72;5024895;28;19977;-76
2022/01/28 04:55:30;;;;;;;;;;;;;;;19.85;39.15;103096.41;5013664;28;19959;-76
2022/01/28 05:00:51;;;;;;;;;;;;;;;19.85;38.92;103103.81;5023375;28;20358;-76
2022/01/28 05:27:12;;;;;;;;;;;;;;;19.76;38.92;103119.03;5007190;28;19928;-76
2022/01/28 05:29:40;;;;;;;;;;;;;;;19.75;38.96;103126.41;5003879;28;19921;-76
2022/01/28 05:32:07;;;;;;;;;;;;;;;19.75;38.93;103126.41;5034166;28;19920;-77
2022/01/28 05:34:32;;;;;;;;;;;;;;;19.75;38.88;103120.09;5016432;28;19918;-76
2022/01/28 05:36:57;;;;;;;;;;;;;;;19.74;38.91;103121.19;4993733;28;19944;-76
2022/01/28 05:39:23;;;;;;;;;;;;;;;19.73;39.02;103127.72;4992795;28;19945;-76
2022/01/28 05:41:48;;;;;;;;;;;;;;;19.73;38.87;103124.97;4995502;28;19929;-76
2022/01/28 05:44:13;;;;;;;;;;;;;;;19.72;38.90;103134.31;5004656;28;20008;-76
2022/01/28 05:46:38;;;;;;;;;;;;;;;19.71;38.90;103136.22;4988367;28;19922;-77
2022/01/28 05:49:04;;;;;;;;;;;;;;;19.71;38.70;103129.91;5010293;28;19934;-76
2022/01/28 05:51:29;;;;;;;;;;;;;;;19.69;38.91;103127.41;5015829;28;20016;-76
2022/01/28 05:53:57;;;;;;;;;;;;;;;19.70;38.75;103139.19;5026958;28;19917;-76
2022/01/28 05:56:23;;;;;;;;;;;;;;;19.68;38.89;103139.47;5026448;28;19921;-76
2022/01/28 05:58:48;;;;;;;;;;;;;;;19.68;38.67;103153.16;4990391;28;20353;-76
2022/01/28 06:01:14;;;;;;;;;;;;;;;19.66;38.78;103156.09;5008058;28;19917;-76
2022/01/28 06:03:39;;;;;;;;;;;;;;;19.67;38.73;103167.94;5027397;28;19925;-77
2022/01/28 06:06:04;;;;;;;;;;;;;;;19.65;38.77;103162.69;5032837;28;20308;-77
2022/01/28 06:08:29;;;;;;;;;;;;;;;19.66;38.98;103169.00;5016354;28;20007;-76
2022/01/28 06:10:55;;;;;;;;;;;;;;;19.64;38.69;103171.97;5003281;28;19917;-79
2022/01/28 06:13:20;;;;;;;;;;;;;;;19.65;38.82;103175.53;5011122;28;20366;-76
2022/01/28 06:15:46;;;;;;;;;;;;;;;19.64;38.89;103182.09;5017714;28;20377;-76
2022/01/28 06:18:11;;;;;;;;;;;;;;;19.63;38.74;103178.53;5027569;28;20949;-78
2022/01/28 06:20:37;;;;;;;;;;;;;;;19.62;38.73;103179.59;5008634;28;20381;-76
2022/01/28 06:23:02;;;;;;;;;;;;;;;19.61;38.80;103177.94;5015851;28;20015;-76
2022/01/28 06:25:27;;;;;;;;;;;;;;;19.60;38.88;103192.72;4977900;28;19975;-77
2022/01/28 06:27:53;;;;;;;;;;;;;;;19.61;38.87;103204.53;5027898;28;19943;-76
2022/01/28 06:30:20;;;;;;;;;;;;;;;19.59;38.69;103207.50;4994001;28;19936;-76
2022/01/28 06:32:47;;;;;;;;;;;;;;;19.59;38.79;103207.50;4990889;28;19998;-76
2022/01/28 06:35:13;;;;;;;;;;;;;;;19.58;38.79;103219.56;5020808;28;19955;-76
2022/01/28 06:37:39;;;;;;;;;;;;;;;19.57;38.66;103220.63;5031083;28;19917;-77
2022/01/28 06:40:06;;;;;;;;;;;;;;;19.57;38.82;103217.88;5006298;28;20274;-76
2022/01/28 06:42:31;;;;;;;;;;;;;;;19.56;38.84;103218.97;5014096;28;19975;-76
2022/01/28 06:44:56;;;;;;;;;;;;;;;19.55;38.79;103217.28;5015682;28;19929;-76
2022/01/28 06:47:21;;;;;;;;;;;;;;;19.54;38.52;103221.13;5030881;28;19959;-77
2022/01/28 06:49:47;;;;;;;;;;;;;;;19.55;38.72;103224.69;5011712;28;19924;-77
2022/01/28 06:52:12;;;;;;;;;;;;;;;19.54;38.75;103242.22;5014167;28;20408;-76
2022/01/28 06:54:37;;;;;;;;;;;;;;;19.51;38.85;103240.78;4985119;28;19948;-76
2022/01/28 06:57:03;;;;;;;;;;;;;;;19.51;38.63;103239.97;5013797;28;19987;-75
2022/01/28 06:59:28;;;;;;;;;;;;;;;19.51;38.48;103253.69;5013253;28;19929;-75
2022/01/28 07:01:53;;;;;;;;;;;;;;;19.50;38.61;103257.47;4987814;28;19972;-76
2022/01/28 07:04:19;;;;;;;;;;;;;;;19.50;38.70;103262.97;5020848;28;19967;-78
2022/01/28 07:06:45;;;;;;;;;;;;;;;19.49;38.63;103266.78;5013427;28;20273;-77
2022/01/28 07:09:10;;;;;;;;;;;;;;;19.48;38.70;103268.69;4989536;28;19922;-76
2022/01/28 07:11:36;;;;;;;;;;;;;;;19.47;38.67;103261.53;5008797;28;19929;-76
2022/01/28 07:14:01;;;;;;;;;;;;;;;19.46;38.68;103268.94;5006578;28;19926;-76
2022/01/28 07:16:27;;;;;;;;;;;;;;;19.46;38.61;103277.16;5006801;28;19921;-76
2022/01/28 07:18:52;;;;;;;;;;;;;;;19.45;38.72;103280.97;5009559;28;20305;-75
2022/01/28 07:21:17;;;;;;;;;;;;;;;19.45;38.68;103278.25;4980966;28;19967;-75
2022/01/28 07:23:42;;;;;;;;;;;;;;;19.44;38.84;103282.03;5011322;28;19924;-75
2022/01/28 07:26:08;;;;;;;;;;;;;;;19.44;38.81;103279.28;5018548;28;19921;-75
2022/01/28 07:28:35;;;;;;;;;;;;;;;19.44;38.98;103284.78;5008957;28;19925;-76
2022/01/28 07:31:00;;;;;;;;;;;;;;;19.43;39.04;103294.09;5018883;28;19922;-76
2022/01/28 07:33:25;;;;;;;;;;;;;;;19.43;39.05;103287.78;5005777;28;19948;-79
2022/01/28 07:35:51;;;;;;;;;;;;;;;19.42;38.95;103284.19;5020433;28;20008;-77
2022/01/28 07:38:16;;;;;;;;;;;;;;;19.43;39.31;103280.38;5003318;28;19926;-77
2022/01/28 07:40:41;;;;;;;;;;;;;;;19.42;39.22;103272.38;5008220;28;20428;-77
2022/01/28 07:43:06;;;;;;;;;;;;;;;19.42;39.31;103289.66;5015021;28;19984;-76
2022/01/28 07:45:31;;;;;;;;;;;;;;;19.42;39.29;103286.09;4980003;28;19953;-76
2022/01/28 07:47:57;;;;;;;;;;;;;;;19.41;39.65;103290.75;4992070;28;19936;-74
2022/01/28 07:50:22;;;;;;;;;;;;;;;19.42;39.41;103284.19;5008165;28;20008;-75
2022/01/28 07:52:47;;;;;;;;;;;;;;;19.43;39.70;103290.53;4993048;28;19933;-79
2022/01/28 07:55:14;;;;;;;;;;;;;;;19.43;39.84;103296.81;4997661;28;20242;-79
2022/01/28 07:57:40;;;;;;;;;;;;;;;19.44;40.09;103295.75;5006789;28;19913;-80
2022/01/28 08:00:06;;;;;;;;;;;;;;;19.46;40.23;103290.03;5006361;28;19926;-79
2022/01/28 08:02:31;;;;;;;;;;;;;;;19.46;40.15;103296.34;4993282;28;19997;-81
2022/01/28 08:04:57;;;;;;;;;;;;;;;19.48;40.27;103306.22;5008223;28;19969;-81
2022/01/28 08:07:22;;;;;;;;;;;;;;;19.50;40.28;103320.53;5002001;28;19921;-80
2022/01/28 08:09:48;;;;;;;;;;;;;;;19.50;40.32;103304.91;5011076;28;20024;-80
2022/01/28 08:12:13;;;;;;;;;;;;;;;19.54;40.44;103317.06;5007381;28;20334;-81
2022/01/28 08:14:38;;;;;;;;;;;;;;;19.55;40.33;103318.72;5012154;28;19917;-81
2022/01/28 08:17:04;;;;;;;;;;;;;;;19.58;40.49;103325.63;5004004;28;20381;-81
2022/01/28 08:19:29;;;;;;;;;;;;;;;19.60;40.67;103328.97;4998799;28;19937;-82
2022/01/28 08:21:54;;;;;;;;;;;;;;;19.62;40.39;103340.53;4998848;28;19959;-82
2022/01/28 08:24:20;;;;;;;;;;;;;;;19.65;40.52;103340.06;4978138;28;19933;-81
2022/01/28 08:26:45;;;;;;;;;;;;;;;19.66;40.52;103348.03;4999658;28;20016;-81
2022/01/28 08:29:10;;;;;;;;;;;;;;;19.69;40.62;103357.72;4973111;28;20385;-81
2022/01/28 08:31:36;;;;;;;;;;;;;;;19.70;40.69;103356.66;4989888;28;19933;-81
2022/01/28 08:34:02;;;;;;;;;;;;;;;19.73;40.61;103347.09;4977965;28;19936;-81
2022/01/28 08:36:28;;;;;;;;;;;;;;;19.74;40.79;103351.53;5019411;28;19917;-82
2022/01/28 08:38:55;;;;;;;;;;;;;;;19.75;40.63;103354.00;4979290;28;20350;-82
2022/01/28 08:41:21;;;;;;;;;;;;;;;19.77;40.66;103362.84;4999606;28;19933;-81
2022/01/28 08:43:46;;;;;;;;;;;;;;;19.78;40.74;103356.31;4997007;28;19918;-81
2022/01/28 08:46:11;;;;;;;;;;;;;;;19.80;40.87;103356.03;4977816;28;19936;-80
2022/01/28 08:48:37;;;;;;;;;;;;;;;19.82;40.63;103356.63;4992722;28;19992;-82
2022/01/28 08:51:02;;;;;;;;;;;;;;;19.83;40.48;103359.16;5000702;28;19917;-82
2022/01/28 08:53:27;;;;;;;;;;;;;;;19.85;40.74;103356.16;5000273;28;19921;-81
2022/01/28 08:55:53;;;;;;;;;;;;;;;19.86;40.47;103352.34;4986281;28;20369;-82
2022/01/28 08:58:18;;;;;;;;;;;;;;;19.88;40.57;103363.88;4994499;28;19929;-81
2022/01/28 09:00:46;;;;;;;;;;;;;;;19.88;40.44;103364.75;4993335;28;19963;-81
2022/01/28 09:03:15;;;;;;;;;;;;;;;19.91;40.61;103368.06;4983504;28;19925;-82
2022/01/28 09:05:40;;;;;;;;;;;;;;;19.91;40.59;103362.56;4989263;28;20378;-81
2022/01/28 09:08:08;;;;;;;;;;;;;;;19.92;40.49;103362.34;4999832;28;20464;-81
2022/01/28 09:10:34;;;;;;;;;;;;;;;19.93;40.45;103360.41;5000341;28;19929;-82
2022/01/28 09:13:20;;;;;;;;;;;;;;;19.93;40.50;103364.00;4995243;28;19940;-81
2022/01/28 09:15:46;;;;;;;;;;;;;;;19.95;40.35;103358.28;5007285;28;20030;-81
2022/01/28 09:18:12;;;;;;;;;;;;;;;19.96;40.27;103359.94;4985986;28;19932;-81
2022/01/28 09:20:38;;;;;;;;;;;;;;;19.96;40.49;103363.53;5011434;28;19913;-81
2022/01/28 09:23:04;;;;;;;;;;;;;;;19.96;40.45;103358.03;5001564;28;19922;-80
2022/01/28 09:25:30;;;;;;;;;;;;;;;19.99;40.39;103356.72;4987041;28;19921;-82
2022/01/28 09:27:55;;;;;;;;;;;;;;;19.99;40.53;103365.78;4983217;28;19948;-82
2022/01/28 09:30:21;;;;;;;;;;;;;;;20.00;40.37;103366.63;5000304;28;20527;-80
2022/01/28 09:32:46;;;;;;;;;;;;;;;20.00;40.54;103363.88;4988750;28;19928;-82
2022/01/28 09:35:12;;;;;;;;;;;;;;;20.01;40.47;103373.78;4987503;28;19933;-82
2022/01/28 09:37:37;;;;;;;;;;;;;;;20.01;40.37;103374.59;4983819;28;20277;-81
2022/01/28 09:40:04;;;;;;;;;;;;;;;20.02;40.37;103372.69;5001670;28;19972;-81
2022/01/28 09:42:32;;;;;;;;;;;;;;;20.03;40.55;103383.44;4980125;28;20329;-83
2022/01/28 09:44:58;;;;;;;;;;;;;;;20.03;40.37;103388.06;4981484;28;20046;-81
2022/01/28 09:47:23;;;;;;;;;;;;;;;20.03;40.43;103397.16;4999429;28;20468;-81
2022/01/28 09:49:49;;;;;;;;;;;;;;;20.04;40.42;103404.31;5000818;28;19930;-81
2022/01/28 09:52:14;;;;;;;;;;;;;;;20.05;40.28;103405.13;5000584;28;20471;-78
2022/01/28 09:54:43;;;;;;;;;;;;;;;20.04;40.31;103408.97;5009512;28;20004;-81
2022/01/28 09:57:08;;;;;;;;;;;;;;;20.04;40.31;103411.69;4994329;28;19917;-81
2022/01/28 09:59:33;;;;;;;;;;;;;;;20.04;40.37;103411.69;5010420;28;19996;-81
2022/01/28 10:01:58;;;;;;;;;;;;;;;20.03;40.29;103407.28;4985974;28;19969;-81
2022/01/28 10:04:24;;;;;;;;;;;;;;;20.02;40.11;103400.13;4994751;28;19929;-81
2022/01/28 10:06:49;;;;;;;;;;;;;;;20.01;40.28;103401.22;5006958;28;20032;-81
2022/01/28 10:09:17;;;;;;;;;;;;;;;20.01;40.24;103403.97;4992924;28;19948;-80
2022/01/28 10:11:45;;;;;;;;;;;;;;;20.01;40.31;103407.53;4992922;28;19929;-81
2022/01/28 10:14:25;;;;;;;;;;;;;;;20.01;40.12;103409.44;5003624;28;19921;-79
2022/01/28 10:16:58;;;;;;;;;;;;;;;20.02;40.23;103408.38;4994272;28;19925;-80
2022/01/28 10:19:36;;;;;;;;;;;;;;;20.02;40.30;103408.38;5003772;28;19921;-84
2022/01/28 10:22:01;;;;;;;;;;;;;;;20.02;40.01;103408.38;4987036;28;20289;-83
2022/01/28 10:24:28;;;;;;;;;;;;;;;20.02;40.16;103403.69;4999297;28;19926;-87
2022/01/28 10:27:07;;;;;;;;;;;;;;;20.03;40.11;103401.78;5004726;28;19913;-82
2022/01/28 10:29:37;;;;;;;;;;;;;;;20.03;40.19;103397.16;5011268;28;19967;-81
2022/01/28 10:32:04;;;;;;;;;;;;;;;20.04;40.00;103400.72;5009144;28;19956;-82
2022/01/28 10:34:36;;;;;;;;;;;;;;;20.05;40.30;103402.38;5002947;28;19925;-87
2022/01/28 10:37:11;;;;;;;;;;;;;;;20.05;40.19;103391.41;5009495;28;19925;-86
2022/01/28 10:39:42;;;;;;;;;;;;;;;20.05;40.45;103394.16;5012620;28;19948;-86
2022/01/28 10:42:07;;;;;;;;;;;;;;;20.05;40.54;103394.97;4990630;28;19917;-87
2022/01/28 10:44:33;;;;;;;;;;;;;;;20.06;40.57;103398.59;5009908;28;19919;-86
2022/01/28 10:47:00;;;;;;;;;;;;;;;20.06;40.42;103399.41;4998301;28;19992;-86
2022/01/28 10:49:35;;;;;;;;;;;;;;;20.07;40.50;103400.25;4989897;28;19924;-85
2022/01/28 10:52:05;;;;;;;;;;;;;;;20.07;40.58;103392.00;4993341;28;20333;-85
2022/01/28 10:54:30;;;;;;;;;;;;;;;20.07;40.75;103395.56;5004882;28;19920;-86
2022/01/28 10:57:19;;;;;;;;;;;;;;;;;;;;;
2022/01/28 10:59:45;;;;;;;;;;;;;;;20.07;40.68;103390.09;5004438;28;19918;-90
2022/01/28 11:02:12;;;;;;;;;;;;;;;20.08;40.54;103390.91;5003522;28;19932;-89
2022/01/28 11:04:42;;;;;;;;;;;;;;;20.08;40.60;103385.44;5002562;28;19921;-88
2022/01/28 11:07:15;;;;;;;;;;;;;;;20.08;40.50;103385.44;4985517;28;19929;-89
2022/01/28 11:09:40;;;;;;;;;;;;;;;20.07;40.63;103387.34;5007279;28;19930;-87
2022/01/28 11:12:08;;;;;;;;;;;;;;;20.07;40.49;103379.13;5002208;28;20121;-87
2022/01/28 11:14:37;;;;;;;;;;;;;;;20.07;40.41;103381.03;4998933;28;19933;-86
2022/01/28 11:17:07;;;;;;;;;;;;;;;20.07;40.55;103373.63;4986275;28;19953;-89
2022/01/28 11:19:38;;;;;;;;;;;;;;;20.07;40.44;103372.81;4983870;28;19935;-89
2022/01/28 11:22:32;;;;;;;;;;;;;;;;;;;;;
2022/01/28 11:25:17;;;;;;;;;;;;;;;20.07;40.53;103372.81;5020382;28;19917;-89
2022/01/28 11:27:46;;;;;;;;;;;;;;;20.07;40.57;103364.56;5026956;28;19983;-89
2022/01/28 11:30:17;;;;;;;;;;;;;;;20.06;40.56;103357.44;4998165;28;19981;-87
2022/01/28 11:33:18;;;;;;;;;;;;;;;20.07;40.61;103367.31;5017390;28;19924;-88
2022/01/28 11:35:52;;;;;;;;;;;;;;;20.06;40.52;103357.44;5031198;28;19925;-83
2022/01/28 11:38:26;;;;;;;;;;;;;;;20.06;40.35;103351.94;5013342;28;19914;-81
2022/01/28 11:40:53;;;;;;;;;;;;;;;20.06;40.49;103349.19;5002234;28;19921;-82
2022/01/28 11:43:20;;;;;;;;;;;;;;;20.06;40.52;103351.94;4996512;28;19914;-82
2022/01/28 11:45:45;;;;;;;;;;;;;;;20.05;40.44;103342.84;4991095;28;20448;-83
2022/01/28 11:48:10;;;;;;;;;;;;;;;20.06;40.54;103351.94;5015935;28;19916;-82
2022/01/28 11:50:36;;;;;;;;;;;;;;;20.04;40.61;103341.19;5001205;28;19921;-82
2022/01/28 11:53:01;;;;;;;;;;;;;;;20.05;40.56;103342.03;4994051;28;19960;-83
2022/01/28 11:55:26;;;;;;;;;;;;;;;20.03;40.46;103336.78;4992091;28;20001;-83
2022/01/28 11:58:00;;;;;;;;;;;;;;;20.04;40.55;103337.63;4998507;28;20370;-83
2022/01/28 12:00:26;;;;;;;;;;;;;;;20.03;40.39;103344.16;4993550;28;20025;-83
2022/01/28 12:02:52;;;;;;;;;;;;;;;20.02;40.33;103348.81;4991909;28;20009;-83
2022/01/28 12:05:24;;;;;;;;;;;;;;;20.02;40.34;103348.81;5002791;28;19917;-83
2022/01/28 12:07:49;;;;;;;;;;;;;;;20.02;40.23;103348.00;4976516;28;19929;-85
2022/01/28 12:10:15;;;;;;;;;;;;;;;20.01;40.23;103332.63;4987470;28;19925;-83
2022/01/28 12:12:40;;;;;;;;;;;;;;;20.02;40.53;103328.78;5000633;28;20028;-84
2022/01/28 12:15:12;;;;;;;;;;;;;;;20.02;40.39;103323.31;4984250;28;20117;-83
2022/01/28 12:17:41;;;;;;;;;;;;;;;20.02;40.33;103315.91;4999742;28;19965;-83
2022/01/28 12:20:09;;;;;;;;;;;;;;;20.01;40.38;103303.28;5004130;28;19929;-83
2022/01/28 12:22:34;;;;;;;;;;;;;;;20.02;40.18;103304.09;5009013;28;20411;-83
2022/01/28 12:25:00;;;;;;;;;;;;;;;20.01;40.31;103297.78;4981703;28;19925;-83
2022/01/28 12:27:32;;;;;;;;;;;;;;;20.02;40.33;103304.09;4987487;28;20341;-83
2022/01/28 12:30:00;;;;;;;;;;;;;;;20.01;40.26;103292.31;4999455;28;19921;-84
2022/01/28 12:32:25;;;;;;;;;;;;;;;20.02;40.21;103293.13;4986036;28;19964;-83
2022/01/28 12:34:51;;;;;;;;;;;;;;;20.00;40.29;103292.53;5002960;28;19968;-83
2022/01/28 12:37:21;;;;;;;;;;;;;;;20.00;40.31;103287.88;4991201;28;19918;-82
2022/01/28 12:39:55;;;;;;;;;;;;;;;20.00;40.31;103287.06;4992725;28;19922;-82
2022/01/28 12:42:24;;;;;;;;;;;;;;;20.00;40.32;103285.13;5012176;28;19922;-84
2022/01/28 12:44:56;;;;;;;;;;;;;;;20.00;40.41;103285.13;4987191;28;20378;-84
2022/01/28 12:47:22;;;;;;;;;;;;;;;19.99;40.12;103285.41;5003864;28;19984;-84
2022/01/28 12:49:53;;;;;;;;;;;;;;;19.99;40.18;103293.63;5003680;28;19925;-84
2022/01/28 12:52:18;;;;;;;;;;;;;;;19.98;40.38;103283.72;5000714;28;19928;-83
2022/01/28 12:54:44;;;;;;;;;;;;;;;19.98;40.21;103283.72;5003374;28;19922;-85
2022/01/28 12:57:11;;;;;;;;;;;;;;;19.97;40.17;103269.16;5001944;28;19956;-83
2022/01/28 12:59:37;;;;;;;;;;;;;;;19.97;40.04;103274.66;5000668;28;19918;-83
2022/01/28 13:02:02;;;;;;;;;;;;;;;19.98;40.17;103272.75;5000330;28;19925;-83
2022/01/28 13:09:52;;;;;;;;;;;;;;;19.96;40.17;103239.22;5009727;28;20346;-83
2022/01/28 13:12:22;;;;;;;;;;;;;;;19.94;40.05;103225.78;4971068;28;19925;-84
2022/01/28 13:14:47;;;;;;;;;;;;;;;19.94;40.14;103224.94;4997159;28;19918;-82
2022/01/28 13:17:17;;;;;;;;;;;;;;;19.93;39.97;103220.53;5013858;28;19932;-82
2022/01/28 13:19:42;;;;;;;;;;;;;;;19.93;40.28;103215.84;5000216;28;19934;-83
2022/01/28 13:22:08;;;;;;;;;;;;;;;19.92;39.95;103210.63;4990566;28;20262;-83
2022/01/28 13:24:33;;;;;;;;;;;;;;;19.92;39.98;103207.91;4993776;28;20309;-83
2022/01/28 13:27:02;;;;;;;;;;;;;;;19.91;40.00;103203.47;4986456;28;20048;-84
2022/01/28 13:29:39;;;;;;;;;;;;;;;19.91;39.92;103211.69;5004678;28;19929;-82
2022/01/28 13:32:09;;;;;;;;;;;;;;;19.91;40.07;103203.47;4997809;28;19922;-82
2022/01/28 13:34:48;;;;;;;;;;;;;;;19.90;39.99;103205.38;4999305;28;19996;-86
2022/01/28 13:37:30;;;;;;;;;;;;;;;19.89;40.04;103204.56;5003939;28;21737;-85
2022/01/28 13:39:55;;;;;;;;;;;;;;;19.89;40.00;103203.72;5006750;28;19972;-87
2022/01/28 13:42:23;;;;;;;;;;;;;;;19.89;40.14;103199.06;5008157;28;19957;-85
2022/01/28 13:44:49;;;;;;;;;;;;;;;19.89;39.92;103195.50;5007476;28;20322;-83
2022/01/28 13:47:16;;;;;;;;;;;;;;;19.89;40.18;103199.06;4998523;28;20269;-86
2022/01/28 13:49:42;;;;;;;;;;;;;;;19.92;40.13;103195.00;4995030;28;19935;-80
2022/01/28 13:52:13;;;;;;;;;;;;;;;19.92;40.24;103199.66;5011653;28;19933;-81
2022/01/28 13:54:38;;;;;;;;;;;;;;;19.92;40.12;103200.50;4998164;28;19917;-79
2022/01/28 13:57:05;;;;;;;;;;;;;;;19.93;40.12;103210.38;4998960;28;19928;-82
2022/01/28 13:59:31;;;;;;;;;;;;;;;19.94;40.27;103219.47;5009649;28;19936;-81
2022/01/28 14:01:59;;;;;;;;;;;;;;;19.93;40.13;103204.06;5008969;28;19917;-81
2022/01/28 14:04:33;;;;;;;;;;;;;;;19.93;40.21;103207.63;5001765;28;21862;-81
2022/01/28 14:07:07;;;;;;;;;;;;;;;19.94;40.08;103203.81;4995663;28;20434;-82
2022/01/28 14:09:41;;;;;;;;;;;;;;;19.94;40.25;103205.75;5005253;28;19921;-81